createdAt,value
2023-02-22T00:03:54.170Z,16.00
2023-02-22T00:08:55.839Z,16.00
2023-02-22T00:13:57.692Z,15.90
2023-02-22T00:18:59.394Z,15.90
2023-02-22T00:24:07.407Z,15.90
2023-02-22T00:29:09.129Z,15.90
2023-02-22T00:34:10.810Z,15.90
2023-02-22T00:39:12.470Z,15.90
2023-02-22T00:44:14.574Z,15.90
2023-02-22T00:49:16.804Z,15.80
2023-02-22T00:54:20.081Z,15.80
2023-02-22T00:59:21.790Z,15.80
2023-02-22T01:04:23.440Z,15.80
2023-02-22T01:09:25.150Z,15.80
2023-02-22T01:14:28.018Z,15.80
2023-02-22T01:19:29.833Z,15.80
2023-02-22T01:24:31.467Z,15.80
2023-02-22T01:29:33.027Z,15.70
2023-02-22T01:34:34.854Z,15.70
2023-02-22T01:39:36.708Z,15.70
2023-02-22T01:44:40.121Z,15.70
2023-02-22T01:49:44.645Z,15.70
2023-02-22T01:54:57.786Z,15.70
2023-02-22T02:00:01.171Z,15.70
2023-02-22T02:05:08.298Z,15.70
2023-02-22T02:10:14.262Z,15.70
2023-02-22T02:15:18.638Z,15.70
2023-02-22T02:20:26.431Z,15.70
2023-02-22T02:25:46.834Z,15.70
2023-02-22T02:31:00.723Z,15.70
2023-02-22T02:36:09.532Z,15.70
2023-02-22T02:41:16.972Z,15.60
2023-02-22T02:46:29.055Z,15.70
2023-02-22T02:51:34.034Z,15.70
2023-02-22T02:56:35.745Z,15.70
2023-02-22T03:01:49.714Z,15.70
2023-02-22T03:07:02.279Z,15.60
2023-02-22T03:12:28.377Z,15.60
2023-02-22T03:17:41.545Z,15.60
2023-02-22T03:22:48.219Z,15.60
2023-02-22T03:27:53.444Z,15.60
2023-02-22T03:33:09.248Z,15.60
2023-02-22T03:38:12.669Z,15.60
2023-02-22T03:43:16.850Z,15.60
2023-02-22T03:48:38.147Z,15.60
2023-02-22T03:53:39.733Z,15.60
2023-02-22T03:58:44.040Z,15.60
2023-02-22T04:03:45.710Z,15.50
2023-02-22T04:08:47.317Z,15.50
2023-02-22T04:13:48.987Z,15.50
2023-02-22T04:18:50.692Z,15.50
2023-02-22T04:23:52.397Z,15.50
2023-02-22T04:28:54.023Z,15.50
2023-02-22T04:33:55.756Z,15.50
2023-02-22T04:38:58.167Z,15.50
2023-02-22T04:44:00.009Z,15.40
2023-02-22T06:06:22.656Z,16.00
2023-02-22T06:11:24.517Z,16.20
2023-02-22T06:16:26.462Z,16.30
2023-02-22T06:21:28.264Z,16.40
2023-02-22T06:26:30.011Z,16.40
2023-02-22T06:31:31.949Z,16.40
2023-02-22T06:36:33.603Z,16.40
2023-02-22T06:41:37.171Z,16.30
2023-02-22T06:46:39.264Z,16.40
2023-02-22T06:51:41.064Z,16.40
2023-02-22T06:56:42.762Z,16.30
2023-02-22T07:01:44.580Z,16.30
2023-02-22T07:06:47.166Z,16.30
2023-02-22T07:11:48.909Z,16.30
2023-02-22T07:16:50.637Z,16.40
2023-02-22T07:21:59.247Z,16.30
2023-02-22T07:27:01.576Z,16.30
2023-02-22T07:32:03.283Z,16.20
2023-02-22T07:37:05.121Z,16.20
2023-02-22T07:42:06.992Z,16.20
2023-02-22T07:47:10.829Z,16.20
2023-02-22T07:52:12.804Z,16.10
2023-02-22T07:57:15.651Z,16.10
2023-02-22T08:02:17.400Z,16.10
2023-02-22T08:07:19.159Z,16.00
2023-02-22T08:12:20.744Z,16.00
2023-02-22T08:17:22.784Z,16.00
2023-02-22T08:22:24.694Z,15.90
2023-02-22T08:27:30.023Z,15.90
2023-02-22T08:32:31.855Z,15.90
2023-02-22T08:37:33.644Z,15.80
2023-02-22T08:42:35.464Z,15.80
2023-02-22T08:47:37.532Z,15.80
2023-02-22T08:52:39.355Z,15.80
2023-02-22T08:57:41.056Z,15.80
2023-02-22T09:02:42.734Z,15.70
2023-02-22T09:07:44.896Z,15.70
2023-02-22T09:12:46.924Z,15.70
2023-02-22T09:17:48.541Z,15.70
2023-02-22T09:22:50.638Z,15.60
2023-02-22T09:27:52.912Z,15.60
2023-02-22T09:32:55.799Z,15.60
2023-02-22T09:37:59.024Z,15.60
2023-02-22T09:43:16.946Z,15.60
2023-02-22T09:48:22.331Z,15.60
2023-02-22T09:53:29.905Z,15.60
2023-02-22T09:58:37.006Z,15.60
2023-02-22T10:03:51.274Z,15.60
2023-02-22T10:08:56.359Z,15.60
2023-02-22T10:14:04.256Z,15.60
2023-02-22T10:19:11.749Z,15.60
2023-02-22T10:24:13.625Z,15.50
2023-02-22T10:29:22.255Z,15.60
2023-02-22T10:34:25.314Z,15.60
2023-02-22T10:39:29.950Z,15.60
2023-02-22T10:44:35.100Z,15.60
2023-02-22T10:49:39.949Z,15.60
2023-02-22T10:54:42.806Z,15.60
2023-02-22T10:59:44.938Z,15.60
2023-02-22T11:04:49.585Z,15.70
2023-02-22T11:09:53.376Z,15.60
2023-02-22T11:14:55.336Z,15.70
2023-02-22T11:19:57.528Z,15.70
2023-02-22T11:25:01.744Z,15.70
2023-02-22T11:30:26.863Z,15.80
2023-02-22T11:35:28.432Z,15.80
2023-02-22T11:40:30.004Z,15.80
2023-02-22T11:45:31.830Z,15.80
2023-02-22T11:50:36.417Z,15.80
2023-02-22T11:55:53.758Z,15.80
2023-02-22T12:01:02.916Z,15.80
2023-02-22T12:06:11.156Z,15.80
2023-02-22T12:11:18.994Z,15.70
2023-02-22T12:16:23.796Z,15.70
2023-02-22T12:21:26.255Z,15.70
2023-02-22T12:26:32.416Z,15.80
2023-02-22T12:31:48.157Z,15.70
2023-02-22T12:36:52.820Z,15.70
2023-02-22T12:41:59.063Z,15.70
2023-02-22T12:47:02.476Z,15.70
2023-02-22T12:52:22.732Z,15.70
2023-02-22T12:57:35.489Z,15.70
2023-02-22T13:02:39.972Z,15.70
2023-02-22T13:07:52.100Z,15.60
2023-02-22T13:12:57.455Z,15.60
2023-02-22T13:18:07.791Z,15.60
2023-02-22T13:23:14.980Z,15.60
2023-02-22T13:28:21.029Z,15.60
2023-02-22T13:33:31.210Z,15.60
2023-02-22T13:38:59.937Z,15.60
2023-02-22T13:44:33.894Z,15.60
2023-02-22T13:49:35.737Z,15.60
2023-02-22T13:54:44.956Z,15.60
2023-02-22T13:59:47.476Z,15.60
2023-02-22T14:04:49.298Z,15.60
2023-02-22T14:09:55.993Z,15.60
2023-02-22T14:15:18.706Z,15.60
2023-02-22T14:20:35.195Z,15.60
2023-02-22T14:25:39.244Z,15.60
2023-02-22T14:30:41.291Z,15.70
2023-02-22T14:35:49.779Z,15.60
2023-02-22T14:40:53.151Z,15.60
2023-02-22T14:46:01.377Z,15.60
2023-02-22T14:51:19.244Z,15.60
2023-02-22T14:56:23.472Z,15.60
2023-02-22T15:01:31.250Z,15.60
2023-02-22T15:06:38.610Z,15.60
2023-02-22T15:11:40.528Z,15.60
2023-02-22T15:16:43.877Z,15.60
2023-02-22T15:21:46.063Z,15.60
2023-02-22T15:27:00.582Z,15.70
2023-02-22T15:32:17.983Z,15.70
2023-02-22T15:37:29.287Z,15.70
2023-02-22T15:42:30.933Z,15.70
2023-02-22T15:47:32.694Z,15.70
2023-02-22T15:52:34.329Z,15.90
2023-02-22T15:57:35.986Z,16.00
2023-02-22T16:02:39.112Z,16.10
2023-02-22T16:07:48.870Z,16.20
2023-02-22T16:13:02.638Z,16.30
2023-02-22T16:18:17.872Z,16.30
2023-02-22T16:23:23.817Z,16.30
2023-02-22T16:28:27.126Z,16.20
2023-02-22T16:33:33.916Z,16.20
2023-02-22T16:38:38.431Z,16.20
2023-02-22T16:43:40.203Z,16.20
2023-02-22T16:48:46.656Z,16.20
2023-02-22T16:53:48.878Z,16.30
2023-02-22T16:58:50.768Z,16.60
2023-02-22T17:03:53.912Z,16.90
2023-02-22T17:08:55.576Z,17.20
2023-02-22T17:13:57.302Z,17.50
2023-02-22T17:18:59.084Z,17.80
2023-02-22T17:24:00.805Z,17.90
2023-02-22T17:29:02.540Z,18.00
2023-02-22T17:34:04.712Z,18.00
2023-02-22T17:39:06.386Z,18.10
2023-02-22T17:44:08.056Z,18.10
2023-02-22T17:49:09.854Z,18.10
2023-02-22T17:54:11.457Z,18.20
2023-02-22T17:59:13.048Z,18.10
2023-02-22T18:04:14.907Z,18.10
2023-02-22T18:09:17.949Z,18.10
2023-02-22T18:14:19.628Z,18.20
2023-02-22T18:19:23.351Z,18.30
2023-02-22T18:24:25.077Z,18.30
2023-02-22T18:29:28.849Z,18.20
2023-02-22T18:34:30.502Z,18.20
2023-02-22T18:39:40.167Z,18.20
2023-02-22T18:44:41.832Z,18.20
2023-02-22T18:49:43.651Z,18.20
2023-02-22T18:54:45.459Z,18.20
2023-02-22T18:59:47.075Z,18.10
2023-02-22T19:04:48.879Z,18.10
2023-02-22T19:09:51.773Z,18.10
2023-02-22T19:14:53.597Z,18.10
2023-02-22T19:19:55.695Z,18.20
2023-02-22T19:24:57.448Z,18.40
2023-02-22T19:29:59.111Z,18.40
2023-02-22T19:35:02.842Z,18.40
2023-02-22T19:40:09.643Z,18.30
2023-02-22T19:45:11.235Z,18.30
2023-02-22T19:50:13.934Z,18.20
2023-02-22T19:55:15.878Z,18.10
2023-02-22T20:00:24.423Z,18.10
2023-02-22T20:05:26.004Z,18.10
2023-02-22T20:10:27.816Z,18.20
2023-02-22T20:15:29.388Z,18.30
2023-02-22T20:20:31.913Z,18.40
2023-02-22T20:25:35.387Z,18.40
2023-02-22T20:30:37.744Z,18.50
2023-02-22T20:35:39.374Z,18.40
2023-02-22T20:40:41.864Z,18.40
2023-02-22T20:45:43.506Z,18.30
2023-02-22T20:50:45.568Z,18.30
2023-02-22T20:55:51.229Z,18.20
2023-02-22T21:00:53.068Z,18.20
2023-02-22T21:05:54.694Z,18.20
2023-02-22T21:10:56.371Z,18.10
2023-02-22T21:15:58.010Z,18.00
2023-02-22T21:21:10.014Z,18.00
2023-02-22T21:26:15.681Z,18.00
2023-02-22T21:31:18.442Z,17.90
2023-02-22T21:36:20.920Z,17.90
2023-02-22T21:41:24.252Z,17.90
2023-02-22T21:46:27.023Z,17.80
2023-02-22T21:51:32.727Z,17.80
2023-02-22T21:56:35.603Z,17.80
2023-02-22T22:01:42.641Z,17.70
2023-02-22T22:06:44.976Z,17.70
2023-02-22T22:11:51.426Z,17.70
2023-02-22T22:16:54.376Z,17.70
2023-02-22T22:21:56.779Z,17.60
2023-02-22T22:27:03.629Z,17.50
2023-02-22T22:32:06.351Z,17.40
2023-02-22T22:37:08.660Z,17.40
2023-02-22T22:42:10.596Z,17.30
2023-02-22T22:47:12.271Z,17.20
2023-02-22T22:52:14.645Z,17.20
2023-02-22T22:57:17.071Z,17.20
2023-02-22T23:02:20.349Z,17.10
2023-02-22T23:07:22.076Z,17.10
2023-02-22T23:12:31.460Z,17.00
2023-02-22T23:17:41.222Z,17.00
2023-02-22T23:22:47.051Z,17.00
2023-02-22T23:27:49.378Z,16.90
2023-02-22T23:32:51.224Z,16.90
2023-02-22T23:37:57.917Z,16.90
2023-02-22T23:43:03.977Z,16.90
2023-02-22T23:48:07.026Z,16.80
2023-02-22T23:53:15.111Z,16.80
2023-02-22T23:58:17.248Z,16.80
